sensor_id;sensor_type;location;lat;lon;timestamp;temperature;humidity
20862;DHT22;10591;52.532;13.348;2023-07-24T00:01:17;19.92;65.05
20862;DHT22;10591;52.532;13.348;2023-07-24T00:03:48;20.00;65.01
20862;DHT22;10591;52.532;13.348;2023-07-24T00:06:19;19.91;65.34
20862;DHT22;10591;52.532;13.348;2023-07-24T00:08:51;19.94;65.23
20862;DHT22;10591;52.532;13.348;2023-07-24T00:11:23;19.93;66.29
20862;DHT22;10591;52.532;13.348;2023-07-24T00:13:54;19.80;66.47
20862;DHT22;10591;52.532;13.348;2023-07-24T00:16:26;19.87;65.94
20862;DHT22;10591;52.532;13.348;2023-07-24T00:18:57;19.88;65.74
20862;DHT22;10591;52.532;13.348;2023-07-24T00:21:28;19.80;66.65
20862;DHT22;10591;52.532;13.348;2023-07-24T00:23:58;19.77;66.66
20862;DHT22;10591;52.532;13.348;2023-07-24T00:26:29;19.74;66.94
20862;DHT22;10591;52.532;13.348;2023-07-24T00:29:01;19.73;66.46
20862;DHT22;10591;52.532;13.348;2023-07-24T00:31:33;19.82;65.53
20862;DHT22;10591;52.532;13.348;2023-07-24T00:34:03;19.76;65.55
20862;DHT22;10591;52.532;13.348;2023-07-24T00:36:35;19.80;65.38
20862;DHT22;10591;52.532;13.348;2023-07-24T00:39:06;19.78;65.15
20862;DHT22;10591;52.532;13.348;2023-07-24T00:41:36;19.73;65.28
20862;DHT22;10591;52.532;13.348;2023-07-24T00:44:07;19.68;65.45
20862;DHT22;10591;52.532;13.348;2023-07-24T00:46:38;19.60;65.92
20862;DHT22;10591;52.532;13.348;2023-07-24T00:49:09;19.64;65.64
20862;DHT22;10591;52.532;13.348;2023-07-24T00:51:40;19.56;65.88
20862;DHT22;10591;52.532;13.348;2023-07-24T00:54:12;19.60;65.64
20862;DHT22;10591;52.532;13.348;2023-07-24T00:56:45;19.57;65.54
20862;DHT22;10591;52.532;13.348;2023-07-24T00:59:17;19.57;65.48
20862;DHT22;10591;52.532;13.348;2023-07-24T01:01:48;19.56;65.66
20862;DHT22;10591;52.532;13.348;2023-07-24T01:04:19;19.44;65.95
20862;DHT22;10591;52.532;13.348;2023-07-24T01:06:51;19.53;65.57
20862;DHT22;10591;52.532;13.348;2023-07-24T01:09:24;19.39;66.11
20862;DHT22;10591;52.532;13.348;2023-07-24T01:11:59;19.42;66.00
20862;DHT22;10591;52.532;13.348;2023-07-24T01:14:41;19.24;66.63
20862;DHT22;10591;52.532;13.348;2023-07-24T01:17:10;19.21;66.57
20862;DHT22;10591;52.532;13.348;2023-07-24T01:19:52;19.22;66.80
20862;DHT22;10591;52.532;13.348;2023-07-24T01:25:33;19.29;66.67
20862;DHT22;10591;52.532;13.348;2023-07-24T01:28:08;19.28;66.67
20862;DHT22;10591;52.532;13.348;2023-07-24T01:30:39;19.32;66.53
20862;DHT22;10591;52.532;13.348;2023-07-24T01:33:09;19.40;66.43
20862;DHT22;10591;52.532;13.348;2023-07-24T01:35:42;19.40;66.32
20862;DHT22;10591;52.532;13.348;2023-07-24T01:38:15;19.55;65.82
20862;DHT22;10591;52.532;13.348;2023-07-24T01:40:47;19.57;65.72
20862;DHT22;10591;52.532;13.348;2023-07-24T01:43:18;19.62;65.78
20862;DHT22;10591;52.532;13.348;2023-07-24T01:45:49;19.76;65.14
20862;DHT22;10591;52.532;13.348;2023-07-24T01:48:22;19.79;65.35
20862;DHT22;10591;52.532;13.348;2023-07-24T01:50:53;19.78;65.47
20862;DHT22;10591;52.532;13.348;2023-07-24T01:53:24;19.88;65.25
20862;DHT22;10591;52.532;13.348;2023-07-24T01:55:56;19.93;65.03
20862;DHT22;10591;52.532;13.348;2023-07-24T01:58:28;19.88;65.28
20862;DHT22;10591;52.532;13.348;2023-07-24T02:00:59;19.83;65.47
20862;DHT22;10591;52.532;13.348;2023-07-24T02:03:30;19.84;65.59
20862;DHT22;10591;52.532;13.348;2023-07-24T02:06:00;19.88;65.54
20862;DHT22;10591;52.532;13.348;2023-07-24T02:08:31;19.86;65.48
20862;DHT22;10591;52.532;13.348;2023-07-24T02:11:01;19.94;65.49
20862;DHT22;10591;52.532;13.348;2023-07-24T02:13:32;20.00;65.01
20862;DHT22;10591;52.532;13.348;2023-07-24T02:16:03;19.84;65.50
20862;DHT22;10591;52.532;13.348;2023-07-24T02:18:33;19.70;65.83
20862;DHT22;10591;52.532;13.348;2023-07-24T02:21:04;19.68;65.88
20862;DHT22;10591;52.532;13.348;2023-07-24T02:23:35;19.71;65.94
20862;DHT22;10591;52.532;13.348;2023-07-24T02:26:09;19.77;65.61
20862;DHT22;10591;52.532;13.348;2023-07-24T02:28:40;19.67;65.93
20862;DHT22;10591;52.532;13.348;2023-07-24T02:31:11;19.66;65.87
20862;DHT22;10591;52.532;13.348;2023-07-24T02:33:42;19.64;65.96
20862;DHT22;10591;52.532;13.348;2023-07-24T02:36:12;19.72;65.66
20862;DHT22;10591;52.532;13.348;2023-07-24T02:38:45;19.68;65.74
20862;DHT22;10591;52.532;13.348;2023-07-24T02:41:16;19.84;65.39
20862;DHT22;10591;52.532;13.348;2023-07-24T02:43:48;19.72;65.95
20862;DHT22;10591;52.532;13.348;2023-07-24T02:46:18;19.88;65.39
20862;DHT22;10591;52.532;13.348;2023-07-24T02:48:49;19.88;65.45
20862;DHT22;10591;52.532;13.348;2023-07-24T02:51:20;19.84;65.62
20862;DHT22;10591;52.532;13.348;2023-07-24T02:53:53;19.89;65.63
20862;DHT22;10591;52.532;13.348;2023-07-24T02:56:24;20.02;65.56
20862;DHT22;10591;52.532;13.348;2023-07-24T02:58:55;19.90;65.89
20862;DHT22;10591;52.532;13.348;2023-07-24T03:01:25;19.93;65.95
20862;DHT22;10591;52.532;13.348;2023-07-24T03:03:56;19.96;66.19
20862;DHT22;10591;52.532;13.348;2023-07-24T03:06:26;19.91;66.18
20862;DHT22;10591;52.532;13.348;2023-07-24T03:08:58;19.76;66.78
20862;DHT22;10591;52.532;13.348;2023-07-24T03:11:30;19.94;66.44
20862;DHT22;10591;52.532;13.348;2023-07-24T03:14:03;19.86;66.77
20862;DHT22;10591;52.532;13.348;2023-07-24T03:16:35;19.93;66.55
20862;DHT22;10591;52.532;13.348;2023-07-24T03:19:06;19.78;67.32
20862;DHT22;10591;52.532;13.348;2023-07-24T03:21:37;19.84;67.19
20862;DHT22;10591;52.532;13.348;2023-07-24T03:24:08;19.84;67.25
20862;DHT22;10591;52.532;13.348;2023-07-24T03:26:42;20.00;67.16
20862;DHT22;10591;52.532;13.348;2023-07-24T03:29:13;19.85;67.45
20862;DHT22;10591;52.532;13.348;2023-07-24T03:31:44;19.78;67.69
20862;DHT22;10591;52.532;13.348;2023-07-24T03:34:16;19.91;67.46
20862;DHT22;10591;52.532;13.348;2023-07-24T03:36:48;19.91;67.72
20862;DHT22;10591;52.532;13.348;2023-07-24T03:39:19;19.98;67.95
20862;DHT22;10591;52.532;13.348;2023-07-24T03:41:50;19.80;69.78
20862;DHT22;10591;52.532;13.348;2023-07-24T03:44:22;19.65;70.78
20862;DHT22;10591;52.532;13.348;2023-07-24T03:46:53;19.66;71.03
20862;DHT22;10591;52.532;13.348;2023-07-24T03:49:24;19.80;70.33
20862;DHT22;10591;52.532;13.348;2023-07-24T03:51:54;19.70;70.87
20862;DHT22;10591;52.532;13.348;2023-07-24T03:54:26;19.68;70.65
20862;DHT22;10591;52.532;13.348;2023-07-24T03:56:57;19.69;71.26
20862;DHT22;10591;52.532;13.348;2023-07-24T03:59:27;19.80;71.11
20862;DHT22;10591;52.532;13.348;2023-07-24T04:01:59;19.84;71.21
20862;DHT22;10591;52.532;13.348;2023-07-24T04:04:30;19.75;71.35
20862;DHT22;10591;52.532;13.348;2023-07-24T04:07:01;19.90;71.41
20862;DHT22;10591;52.532;13.348;2023-07-24T04:09:32;20.06;71.47
20862;DHT22;10591;52.532;13.348;2023-07-24T04:12:03;19.92;72.35
20862;DHT22;10591;52.532;13.348;2023-07-24T04:14:34;19.90;72.51
20862;DHT22;10591;52.532;13.348;2023-07-24T04:17:07;19.82;73.09
20862;DHT22;10591;52.532;13.348;2023-07-24T04:19:39;19.91;72.64
20862;DHT22;10591;52.532;13.348;2023-07-24T04:22:11;19.92;72.71
20862;DHT22;10591;52.532;13.348;2023-07-24T04:24:42;19.96;72.71
20862;DHT22;10591;52.532;13.348;2023-07-24T04:27:12;20.06;72.65
20862;DHT22;10591;52.532;13.348;2023-07-24T04:29:46;20.06;72.90
20862;DHT22;10591;52.532;13.348;2023-07-24T04:32:20;20.08;72.74
20862;DHT22;10591;52.532;13.348;2023-07-24T04:34:51;20.18;72.59
20862;DHT22;10591;52.532;13.348;2023-07-24T04:37:21;20.18;72.23
20862;DHT22;10591;52.532;13.348;2023-07-24T04:39:52;20.32;71.79
20862;DHT22;10591;52.532;13.348;2023-07-24T04:42:22;20.51;70.95
20862;DHT22;10591;52.532;13.348;2023-07-24T04:44:53;20.58;70.54
20862;DHT22;10591;52.532;13.348;2023-07-24T04:47:24;20.58;70.59
20862;DHT22;10591;52.532;13.348;2023-07-24T04:49:54;20.58;70.62
20862;DHT22;10591;52.532;13.348;2023-07-24T04:52:25;20.69;70.11
20862;DHT22;10591;52.532;13.348;2023-07-24T04:54:56;20.74;69.98
20862;DHT22;10591;52.532;13.348;2023-07-24T04:57:27;20.81;69.80
20862;DHT22;10591;52.532;13.348;2023-07-24T04:59:58;21.00;69.50
20862;DHT22;10591;52.532;13.348;2023-07-24T05:02:28;20.88;70.04
20862;DHT22;10591;52.532;13.348;2023-07-24T05:04:59;20.94;69.85
20862;DHT22;10591;52.532;13.348;2023-07-24T05:07:32;21.03;69.39
20862;DHT22;10591;52.532;13.348;2023-07-24T05:10:02;21.06;69.26
20862;DHT22;10591;52.532;13.348;2023-07-24T05:12:33;21.25;68.67
20862;DHT22;10591;52.532;13.348;2023-07-24T05:15:05;21.60;68.07
20862;DHT22;10591;52.532;13.348;2023-07-24T05:17:36;22.86;64.89
20862;DHT22;10591;52.532;13.348;2023-07-24T05:20:09;25.81;56.48
20862;DHT22;10591;52.532;13.348;2023-07-24T05:22:40;28.72;49.61
20862;DHT22;10591;52.532;13.348;2023-07-24T05:25:11;30.28;45.90
20862;DHT22;10591;52.532;13.348;2023-07-24T05:27:41;31.20;43.55
20862;DHT22;10591;52.532;13.348;2023-07-24T05:30:14;30.55;44.42
20862;DHT22;10591;52.532;13.348;2023-07-24T05:32:46;28.69;47.97
20862;DHT22;10591;52.532;13.348;2023-07-24T05:35:17;27.17;51.18
20862;DHT22;10591;52.532;13.348;2023-07-24T05:37:50;25.82;54.16
20862;DHT22;10591;52.532;13.348;2023-07-24T05:40:20;25.07;56.27
20862;DHT22;10591;52.532;13.348;2023-07-24T05:42:52;24.48;57.67
20862;DHT22;10591;52.532;13.348;2023-07-24T05:45:23;24.44;57.98
20862;DHT22;10591;52.532;13.348;2023-07-24T05:47:54;24.46;58.44
20862;DHT22;10591;52.532;13.348;2023-07-24T05:50:26;24.16;59.22
20862;DHT22;10591;52.532;13.348;2023-07-24T05:52:58;24.39;58.61
20862;DHT22;10591;52.532;13.348;2023-07-24T05:55:30;24.45;58.41
20862;DHT22;10591;52.532;13.348;2023-07-24T05:58:01;25.27;56.34
20862;DHT22;10591;52.532;13.348;2023-07-24T06:00:32;26.98;52.70
20862;DHT22;10591;52.532;13.348;2023-07-24T06:03:04;28.68;48.59
20862;DHT22;10591;52.532;13.348;2023-07-24T06:05:36;28.26;48.70
20862;DHT22;10591;52.532;13.348;2023-07-24T06:08:07;28.96;47.57
20862;DHT22;10591;52.532;13.348;2023-07-24T06:10:39;30.90;43.31
20862;DHT22;10591;52.532;13.348;2023-07-24T06:13:11;30.49;43.57
20862;DHT22;10591;52.532;13.348;2023-07-24T06:15:42;30.42;43.86
20862;DHT22;10591;52.532;13.348;2023-07-24T06:18:16;31.96;41.45
20862;DHT22;10591;52.532;13.348;2023-07-24T06:20:47;33.19;39.09
20862;DHT22;10591;52.532;13.348;2023-07-24T06:23:20;33.81;37.82
20862;DHT22;10591;52.532;13.348;2023-07-24T06:25:51;34.60;36.63
20862;DHT22;10591;52.532;13.348;2023-07-24T06:28:23;35.22;35.37
20862;DHT22;10591;52.532;13.348;2023-07-24T06:30:54;35.66;35.02
20862;DHT22;10591;52.532;13.348;2023-07-24T06:33:25;36.25;33.78
20862;DHT22;10591;52.532;13.348;2023-07-24T06:35:55;35.95;33.68
20862;DHT22;10591;52.532;13.348;2023-07-24T06:38:27;36.29;33.28
20862;DHT22;10591;52.532;13.348;2023-07-24T06:40:57;36.06;33.33
20862;DHT22;10591;52.532;13.348;2023-07-24T06:43:29;35.92;33.79
20862;DHT22;10591;52.532;13.348;2023-07-24T06:46:00;36.08;33.26
20862;DHT22;10591;52.532;13.348;2023-07-24T06:48:31;35.34;34.49
20862;DHT22;10591;52.532;13.348;2023-07-24T06:51:01;35.79;33.89
20862;DHT22;10591;52.532;13.348;2023-07-24T06:53:33;36.65;32.81
20862;DHT22;10591;52.532;13.348;2023-07-24T06:56:04;36.30;33.07
20862;DHT22;10591;52.532;13.348;2023-07-24T06:58:37;34.08;36.19
20862;DHT22;10591;52.532;13.348;2023-07-24T07:01:08;31.24;40.75
20862;DHT22;10591;52.532;13.348;2023-07-24T07:03:38;29.51;44.06
20862;DHT22;10591;52.532;13.348;2023-07-24T07:06:09;27.85;47.66
20862;DHT22;10591;52.532;13.348;2023-07-24T07:08:43;26.86;49.86
20862;DHT22;10591;52.532;13.348;2023-07-24T07:11:13;26.68;50.83
20862;DHT22;10591;52.532;13.348;2023-07-24T07:13:44;26.15;51.89
20862;DHT22;10591;52.532;13.348;2023-07-24T07:16:15;25.96;53.07
20862;DHT22;10591;52.532;13.348;2023-07-24T07:18:47;25.56;53.78
20862;DHT22;10591;52.532;13.348;2023-07-24T07:21:18;25.51;53.84
20862;DHT22;10591;52.532;13.348;2023-07-24T07:23:49;25.22;54.10
20862;DHT22;10591;52.532;13.348;2023-07-24T07:26:19;24.84;55.12
20862;DHT22;10591;52.532;13.348;2023-07-24T07:28:52;24.86;55.00
20862;DHT22;10591;52.532;13.348;2023-07-24T07:31:23;24.79;55.08
20862;DHT22;10591;52.532;13.348;2023-07-24T07:33:54;24.70;55.41
20862;DHT22;10591;52.532;13.348;2023-07-24T07:36:27;24.94;54.98
20862;DHT22;10591;52.532;13.348;2023-07-24T07:39:00;25.04;55.12
20862;DHT22;10591;52.532;13.348;2023-07-24T07:41:31;25.13;54.13
20862;DHT22;10591;52.532;13.348;2023-07-24T07:44:03;25.02;54.21
20862;DHT22;10591;52.532;13.348;2023-07-24T07:46:34;24.99;54.52
20862;DHT22;10591;52.532;13.348;2023-07-24T07:49:05;25.00;54.46
20862;DHT22;10591;52.532;13.348;2023-07-24T07:51:36;25.28;53.93
20862;DHT22;10591;52.532;13.348;2023-07-24T07:54:08;25.26;53.61
20862;DHT22;10591;52.532;13.348;2023-07-24T07:56:39;25.53;53.08
20862;DHT22;10591;52.532;13.348;2023-07-24T07:59:09;25.43;53.07
20862;DHT22;10591;52.532;13.348;2023-07-24T08:01:40;25.44;52.81
20862;DHT22;10591;52.532;13.348;2023-07-24T08:04:12;25.43;53.00
20862;DHT22;10591;52.532;13.348;2023-07-24T08:06:42;25.52;52.54
20862;DHT22;10591;52.532;13.348;2023-07-24T08:09:13;25.78;51.71
20862;DHT22;10591;52.532;13.348;2023-07-24T08:11:47;26.12;50.73
20862;DHT22;10591;52.532;13.348;2023-07-24T08:14:21;26.36;50.12
20862;DHT22;10591;52.532;13.348;2023-07-24T08:16:53;26.20;50.26
20862;DHT22;10591;52.532;13.348;2023-07-24T08:19:31;26.33;50.27
20862;DHT22;10591;52.532;13.348;2023-07-24T08:22:03;26.56;49.82
20862;DHT22;10591;52.532;13.348;2023-07-24T08:24:36;26.70;49.38
20862;DHT22;10591;52.532;13.348;2023-07-24T08:27:07;26.68;48.56
20862;DHT22;10591;52.532;13.348;2023-07-24T08:29:38;26.54;49.49
20862;DHT22;10591;52.532;13.348;2023-07-24T08:32:09;26.90;48.88
20862;DHT22;10591;52.532;13.348;2023-07-24T08:34:40;26.98;48.44
20862;DHT22;10591;52.532;13.348;2023-07-24T08:37:15;27.27;47.56
20862;DHT22;10591;52.532;13.348;2023-07-24T08:39:45;27.27;47.89
20862;DHT22;10591;52.532;13.348;2023-07-24T08:42:16;27.28;47.73
20862;DHT22;10591;52.532;13.348;2023-07-24T08:44:52;27.38;47.70
20862;DHT22;10591;52.532;13.348;2023-07-24T08:47:27;27.34;47.57
20862;DHT22;10591;52.532;13.348;2023-07-24T08:50:01;27.30;47.79
20862;DHT22;10591;52.532;13.348;2023-07-24T08:52:33;27.46;47.94
20862;DHT22;10591;52.532;13.348;2023-07-24T08:55:06;26.85;48.78
20862;DHT22;10591;52.532;13.348;2023-07-24T08:57:37;26.98;48.05
20862;DHT22;10591;52.532;13.348;2023-07-24T09:00:09;27.01;47.76
20862;DHT22;10591;52.532;13.348;2023-07-24T09:02:40;27.14;48.10
20862;DHT22;10591;52.532;13.348;2023-07-24T09:05:14;26.97;48.34
20862;DHT22;10591;52.532;13.348;2023-07-24T09:07:47;27.03;48.48
20862;DHT22;10591;52.532;13.348;2023-07-24T09:10:26;27.26;48.08
20862;DHT22;10591;52.532;13.348;2023-07-24T09:12:58;27.30;48.28
20862;DHT22;10591;52.532;13.348;2023-07-24T09:15:28;27.52;47.75
20862;DHT22;10591;52.532;13.348;2023-07-24T09:17:59;27.22;48.50
20862;DHT22;10591;52.532;13.348;2023-07-24T09:20:40;27.05;49.03
20862;DHT22;10591;52.532;13.348;2023-07-24T09:23:13;27.41;48.30
20862;DHT22;10591;52.532;13.348;2023-07-24T09:25:46;27.41;48.10
20862;DHT22;10591;52.532;13.348;2023-07-24T09:28:17;27.78;47.49
20862;DHT22;10591;52.532;13.348;2023-07-24T09:30:55;27.89;47.57
20862;DHT22;10591;52.532;13.348;2023-07-24T09:33:34;28.01;46.92
20862;DHT22;10591;52.532;13.348;2023-07-24T09:36:07;28.24;46.26
20862;DHT22;10591;52.532;13.348;2023-07-24T09:38:42;28.63;45.54
20862;DHT22;10591;52.532;13.348;2023-07-24T09:41:13;28.08;46.34
20862;DHT22;10591;52.532;13.348;2023-07-24T09:43:45;27.81;46.18
20862;DHT22;10591;52.532;13.348;2023-07-24T09:46:16;27.50;47.20
20862;DHT22;10591;52.532;13.348;2023-07-24T09:48:47;27.48;46.99
20862;DHT22;10591;52.532;13.348;2023-07-24T09:51:19;27.44;47.25
20862;DHT22;10591;52.532;13.348;2023-07-24T09:54:06;27.32;47.83
20862;DHT22;10591;52.532;13.348;2023-07-24T09:56:37;27.26;48.08
20862;DHT22;10591;52.532;13.348;2023-07-24T09:59:11;27.96;46.92
20862;DHT22;10591;52.532;13.348;2023-07-24T10:01:43;28.10;46.74
20862;DHT22;10591;52.532;13.348;2023-07-24T10:04:15;28.32;46.23
20862;DHT22;10591;52.532;13.348;2023-07-24T10:06:47;28.00;46.46
20862;DHT22;10591;52.532;13.348;2023-07-24T10:09:22;28.04;45.97
20862;DHT22;10591;52.532;13.348;2023-07-24T10:11:57;27.78;46.07
20862;DHT22;10591;52.532;13.348;2023-07-24T10:14:28;27.24;47.42
20862;DHT22;10591;52.532;13.348;2023-07-24T10:17:00;27.09;47.27
20862;DHT22;10591;52.532;13.348;2023-07-24T10:19:41;27.28;47.62
20862;DHT22;10591;52.532;13.348;2023-07-24T10:22:19;27.14;47.91
20862;DHT22;10591;52.532;13.348;2023-07-24T10:24:54;27.13;47.54
20862;DHT22;10591;52.532;13.348;2023-07-24T10:27:26;27.00;48.08
20862;DHT22;10591;52.532;13.348;2023-07-24T10:30:04;27.12;47.31
20862;DHT22;10591;52.532;13.348;2023-07-24T10:32:48;27.30;47.10
20862;DHT22;10591;52.532;13.348;2023-07-24T10:35:21;27.60;46.58
20862;DHT22;10591;52.532;13.348;2023-07-24T10:38:02;27.55;45.98
20862;DHT22;10591;52.532;13.348;2023-07-24T10:40:33;27.74;45.90
20862;DHT22;10591;52.532;13.348;2023-07-24T10:43:09;27.64;46.49
20862;DHT22;10591;52.532;13.348;2023-07-24T10:48:21;28.09;44.34
20862;DHT22;10591;52.532;13.348;2023-07-24T10:50:52;28.36;43.77
20862;DHT22;10591;52.532;13.348;2023-07-24T10:53:24;28.86;43.46
20862;DHT22;10591;52.532;13.348;2023-07-24T10:55:57;28.70;43.34
20862;DHT22;10591;52.532;13.348;2023-07-24T10:58:31;28.33;44.17
20862;DHT22;10591;52.532;13.348;2023-07-24T11:01:06;28.42;43.64
20862;DHT22;10591;52.532;13.348;2023-07-24T11:03:40;28.08;44.01
20862;DHT22;10591;52.532;13.348;2023-07-24T11:06:19;28.46;43.21
20862;DHT22;10591;52.532;13.348;2023-07-24T11:08:56;28.60;42.31
20862;DHT22;10591;52.532;13.348;2023-07-24T11:11:32;28.40;42.79
20862;DHT22;10591;52.532;13.348;2023-07-24T11:14:04;28.75;41.99
20862;DHT22;10591;52.532;13.348;2023-07-24T11:16:36;28.44;42.33
20862;DHT22;10591;52.532;13.348;2023-07-24T11:19:09;28.57;41.90
20862;DHT22;10591;52.532;13.348;2023-07-24T11:21:41;28.58;41.73
20862;DHT22;10591;52.532;13.348;2023-07-24T11:24:12;28.18;42.47
20862;DHT22;10591;52.532;13.348;2023-07-24T11:26:43;28.25;42.48
20862;DHT22;10591;52.532;13.348;2023-07-24T11:29:14;28.14;42.60
20862;DHT22;10591;52.532;13.348;2023-07-24T11:31:45;27.97;42.78
20862;DHT22;10591;52.532;13.348;2023-07-24T11:34:18;28.05;42.32
20862;DHT22;10591;52.532;13.348;2023-07-24T11:36:49;28.06;42.49
20862;DHT22;10591;52.532;13.348;2023-07-24T11:39:23;28.39;42.08
20862;DHT22;10591;52.532;13.348;2023-07-24T11:41:56;28.64;41.74
20862;DHT22;10591;52.532;13.348;2023-07-24T11:44:28;28.86;41.12
20862;DHT22;10591;52.532;13.348;2023-07-24T11:47:06;28.86;41.66
20862;DHT22;10591;52.532;13.348;2023-07-24T11:49:37;28.91;41.53
20862;DHT22;10591;52.532;13.348;2023-07-24T11:52:10;29.02;41.41
20862;DHT22;10591;52.532;13.348;2023-07-24T11:54:40;29.45;40.57
20862;DHT22;10591;52.532;13.348;2023-07-24T11:57:17;29.94;40.07
20862;DHT22;10591;52.532;13.348;2023-07-24T11:59:50;29.31;40.69
20862;DHT22;10591;52.532;13.348;2023-07-24T12:02:22;28.71;41.40
20862;DHT22;10591;52.532;13.348;2023-07-24T12:04:57;28.14;42.40
20862;DHT22;10591;52.532;13.348;2023-07-24T12:07:34;27.67;43.69
20862;DHT22;10591;52.532;13.348;2023-07-24T12:10:07;27.18;44.70
20862;DHT22;10591;52.532;13.348;2023-07-24T12:12:41;27.01;45.15
20862;DHT22;10591;52.532;13.348;2023-07-24T12:15:12;26.46;46.97
20862;DHT22;10591;52.532;13.348;2023-07-24T12:17:44;25.71;50.87
20862;DHT22;10591;52.532;13.348;2023-07-24T12:20:18;24.60;60.19
20862;DHT22;10591;52.532;13.348;2023-07-24T12:22:52;23.38;63.44
20862;DHT22;10591;52.532;13.348;2023-07-24T12:25:24;22.84;65.37
20862;DHT22;10591;52.532;13.348;2023-07-24T12:27:55;22.56;66.93
20862;DHT22;10591;52.532;13.348;2023-07-24T12:30:25;22.44;68.79
20862;DHT22;10591;52.532;13.348;2023-07-24T12:32:56;22.39;67.79
20862;DHT22;10591;52.532;13.348;2023-07-24T12:35:29;22.72;67.38
20862;DHT22;10591;52.532;13.348;2023-07-24T12:37:59;23.14;67.11
20862;DHT22;10591;52.532;13.348;2023-07-24T12:40:31;23.26;64.75
20862;DHT22;10591;52.532;13.348;2023-07-24T12:43:03;23.30;65.34
20862;DHT22;10591;52.532;13.348;2023-07-24T12:45:36;23.53;63.97
20862;DHT22;10591;52.532;13.348;2023-07-24T12:48:09;23.88;63.97
20862;DHT22;10591;52.532;13.348;2023-07-24T12:50:46;24.22;62.69
20862;DHT22;10591;52.532;13.348;2023-07-24T12:53:20;24.23;60.92
20862;DHT22;10591;52.532;13.348;2023-07-24T12:55:53;24.18;61.04
20862;DHT22;10591;52.532;13.348;2023-07-24T12:58:24;24.58;60.10
20862;DHT22;10591;52.532;13.348;2023-07-24T13:00:55;24.64;60.09
20862;DHT22;10591;52.532;13.348;2023-07-24T13:03:25;24.80;59.81
20862;DHT22;10591;52.532;13.348;2023-07-24T13:05:56;24.86;60.21
20862;DHT22;10591;52.532;13.348;2023-07-24T13:08:28;24.78;59.80
20862;DHT22;10591;52.532;13.348;2023-07-24T13:10:59;24.75;59.98
20862;DHT22;10591;52.532;13.348;2023-07-24T13:13:29;24.89;59.64
20862;DHT22;10591;52.532;13.348;2023-07-24T13:16:01;24.34;62.05
20862;DHT22;10591;52.532;13.348;2023-07-24T13:18:32;24.39;62.33
20862;DHT22;10591;52.532;13.348;2023-07-24T13:21:03;24.33;62.44
20862;DHT22;10591;52.532;13.348;2023-07-24T13:23:36;24.55;61.76
20862;DHT22;10591;52.532;13.348;2023-07-24T13:26:09;25.08;60.27
20862;DHT22;10591;52.532;13.348;2023-07-24T13:28:40;24.69;61.87
20862;DHT22;10591;52.532;13.348;2023-07-24T13:31:14;24.93;62.20
20862;DHT22;10591;52.532;13.348;2023-07-24T13:33:46;24.90;62.69
20862;DHT22;10591;52.532;13.348;2023-07-24T13:36:18;25.17;61.98
20862;DHT22;10591;52.532;13.348;2023-07-24T13:38:51;25.25;62.14
20862;DHT22;10591;52.532;13.348;2023-07-24T13:41:27;25.35;61.83
20862;DHT22;10591;52.532;13.348;2023-07-24T13:43:54;25.48;61.94
20862;DHT22;10591;52.532;13.348;2023-07-24T13:46:27;25.70;61.49
20862;DHT22;10591;52.532;13.348;2023-07-24T13:48:58;25.77;61.16
20862;DHT22;10591;52.532;13.348;2023-07-24T13:51:29;25.62;61.36
20862;DHT22;10591;52.532;13.348;2023-07-24T13:54:02;25.52;61.19
20862;DHT22;10591;52.532;13.348;2023-07-24T13:56:33;25.15;62.45
20862;DHT22;10591;52.532;13.348;2023-07-24T13:59:05;25.20;62.52
20862;DHT22;10591;52.532;13.348;2023-07-24T14:01:36;25.02;62.85
20862;DHT22;10591;52.532;13.348;2023-07-24T14:04:07;25.03;62.74
20862;DHT22;10591;52.532;13.348;2023-07-24T14:06:39;25.28;61.73
20862;DHT22;10591;52.532;13.348;2023-07-24T14:09:11;25.21;61.89
20862;DHT22;10591;52.532;13.348;2023-07-24T14:11:44;25.14;61.97
20862;DHT22;10591;52.532;13.348;2023-07-24T14:14:17;24.96;61.67
20862;DHT22;10591;52.532;13.348;2023-07-24T14:16:50;25.12;61.12
20862;DHT22;10591;52.532;13.348;2023-07-24T14:19:22;25.18;60.29
20862;DHT22;10591;52.532;13.348;2023-07-24T14:21:55;25.47;59.69
20862;DHT22;10591;52.532;13.348;2023-07-24T14:24:26;25.61;58.89
20862;DHT22;10591;52.532;13.348;2023-07-24T14:26:57;25.71;58.87
20862;DHT22;10591;52.532;13.348;2023-07-24T14:29:28;25.59;58.83
20862;DHT22;10591;52.532;13.348;2023-07-24T14:32:00;25.76;57.99
20862;DHT22;10591;52.532;13.348;2023-07-24T14:34:33;25.80;57.78
20862;DHT22;10591;52.532;13.348;2023-07-24T14:37:05;25.88;57.85
20862;DHT22;10591;52.532;13.348;2023-07-24T14:39:36;25.99;57.65
20862;DHT22;10591;52.532;13.348;2023-07-24T14:42:07;25.80;59.25
20862;DHT22;10591;52.532;13.348;2023-07-24T14:44:37;25.76;60.13
20862;DHT22;10591;52.532;13.348;2023-07-24T14:47:08;25.81;60.07
20862;DHT22;10591;52.532;13.348;2023-07-24T14:49:39;25.48;59.72
20862;DHT22;10591;52.532;13.348;2023-07-24T14:52:12;25.60;57.84
20862;DHT22;10591;52.532;13.348;2023-07-24T14:54:44;25.48;55.46
20862;DHT22;10591;52.532;13.348;2023-07-24T14:57:15;25.35;55.66
20862;DHT22;10591;52.532;13.348;2023-07-24T14:59:47;25.34;55.60
20862;DHT22;10591;52.532;13.348;2023-07-24T15:02:18;25.09;55.12
20862;DHT22;10591;52.532;13.348;2023-07-24T15:04:50;25.27;54.97
20862;DHT22;10591;52.532;13.348;2023-07-24T15:07:21;25.29;55.21
20862;DHT22;10591;52.532;13.348;2023-07-24T15:09:52;25.50;54.55
20862;DHT22;10591;52.532;13.348;2023-07-24T15:12:24;25.52;54.22
20862;DHT22;10591;52.532;13.348;2023-07-24T15:14:57;25.72;53.67
20862;DHT22;10591;52.532;13.348;2023-07-24T15:17:30;25.94;53.45
20862;DHT22;10591;52.532;13.348;2023-07-24T15:20:02;26.28;53.05
20862;DHT22;10591;52.532;13.348;2023-07-24T15:22:34;26.53;51.97
20862;DHT22;10591;52.532;13.348;2023-07-24T15:25:08;26.58;51.40
20862;DHT22;10591;52.532;13.348;2023-07-24T15:27:40;26.93;50.32
20862;DHT22;10591;52.532;13.348;2023-07-24T15:30:12;27.11;50.05
20862;DHT22;10591;52.532;13.348;2023-07-24T15:32:49;27.59;49.62
20862;DHT22;10591;52.532;13.348;2023-07-24T15:35:18;27.48;49.80
20862;DHT22;10591;52.532;13.348;2023-07-24T15:37:51;27.50;50.07
20862;DHT22;10591;52.532;13.348;2023-07-24T15:40:23;27.74;49.42
20862;DHT22;10591;52.532;13.348;2023-07-24T15:42:54;27.57;49.46
20862;DHT22;10591;52.532;13.348;2023-07-24T15:45:27;28.04;48.67
20862;DHT22;10591;52.532;13.348;2023-07-24T15:47:57;28.15;48.58
20862;DHT22;10591;52.532;13.348;2023-07-24T15:50:28;28.33;47.82